Terminal Aerodrome Forecast
Issued by NWS Amarillo, TX

Home | Current Version | Previous Version | Text Only | Print | Product List | Glossary On
Versions: 1 2 3 4 5 6 7 8 9 10 11 12 13 14 15 16 17
000
FTUS44 KAMA 022344
TAFGUY
TAF
KGUY 022344Z 0300/0324 18015KT P6SM BKN250
     FM030200 19010KT P6SM SCT200
     FM031500 20016G24KT P6SM SCT200=

USA.gov is the U.S. government's official web portal to all federal, state and local government web resources and services.